createdAt,value
2014-09-26T00:00:19.988Z,65.81
2014-09-26T00:01:24.661Z,65.68
2014-09-26T00:02:29.351Z,65.88
2014-09-26T00:03:34.026Z,65.64
2014-09-26T00:04:38.715Z,66
2014-09-26T00:05:43.404Z,66.3
2014-09-26T00:06:48.078Z,66.35
2014-09-26T00:07:52.768Z,66.25
2014-09-26T00:08:57.738Z,66.62
2014-09-26T00:10:02.428Z,66.35
2014-09-26T00:11:07.399Z,66.95
2014-09-26T00:12:12.385Z,67.64
2014-09-26T00:13:17.075Z,67.4
2014-09-26T00:14:21.749Z,66.58
2014-09-26T00:15:26.439Z,66.2
2014-09-26T00:16:31.112Z,66.67
2014-09-26T00:17:35.802Z,66.72
2014-09-26T00:18:40.476Z,66.16
2014-09-26T00:19:45.463Z,66.08
2014-09-26T00:20:50.136Z,66.07
2014-09-26T00:21:54.826Z,65.92
2014-09-26T00:22:59.813Z,65.64
2014-09-26T00:24:03.799Z,65.6
2014-09-26T00:25:08.488Z,65.72
2014-09-26T00:26:13.459Z,66.36
2014-09-26T00:27:18.149Z,66.03
2014-09-26T00:28:22.838Z,66
2014-09-26T00:29:27.528Z,66.24
2014-09-26T00:30:32.203Z,66.48
2014-09-26T00:31:36.892Z,66.72
2014-09-26T00:32:41.581Z,66.75
2014-09-26T00:33:46.255Z,66.46
2014-09-26T00:34:50.945Z,66.34
2014-09-26T00:35:55.618Z,65.98
2014-09-26T00:37:00.308Z,66.04
2014-09-26T00:38:05.295Z,66.4
2014-09-26T00:39:10.265Z,66.65
2014-09-26T00:40:14.955Z,66.82
2014-09-26T00:41:19.926Z,66.71
2014-09-26T00:42:24.616Z,66.81
2014-09-26T00:43:29.320Z,66.78
2014-09-26T00:44:33.994Z,67.1
2014-09-26T00:45:38.668Z,67.54
2014-09-26T00:46:43.359Z,67.3
2014-09-26T00:47:48.032Z,66.97
2014-09-26T00:48:53.018Z,66.5
2014-09-26T00:49:58.004Z,65.95
2014-09-26T00:51:02.679Z,66.64
2014-09-26T00:52:07.369Z,66.59
2014-09-26T00:53:12.339Z,66.47
2014-09-26T00:54:16.638Z,66.36
2014-09-26T00:55:21.328Z,67.14
2014-09-26T00:56:26.298Z,67.4
2014-09-26T00:57:30.988Z,66.94
2014-09-26T00:58:35.662Z,66.84
2014-09-26T00:59:40.351Z,66.63
2014-09-26T01:00:45.338Z,67.1
2014-09-26T01:01:50.309Z,67.34
2014-09-26T01:02:55.295Z,67.09
2014-09-26T01:03:59.984Z,66.77
2014-09-26T01:05:04.659Z,66.55
2014-09-26T01:06:09.349Z,66.83
2014-09-26T01:07:14.023Z,66.93
2014-09-26T01:08:18.712Z,67.41
2014-09-26T01:09:23.995Z,67.21
2014-09-26T01:10:28.669Z,67.07
2014-09-26T01:11:33.359Z,67.16
2014-09-26T01:12:38.033Z,66.94
2014-09-26T01:13:42.723Z,67.35
2014-09-26T01:14:47.396Z,67.02
2014-09-26T01:15:52.086Z,66.83
2014-09-26T01:16:57.072Z,66.39
2014-09-26T01:18:01.746Z,66.52
2014-09-26T01:19:06.436Z,66.85
2014-09-26T01:20:11.126Z,67.16
2014-09-26T01:21:15.800Z,66.97
2014-09-26T01:22:20.489Z,67.41
2014-09-26T01:23:25.163Z,67.38
2014-09-26T01:24:29.837Z,67.37
2014-09-26T01:25:34.526Z,67.82
2014-09-26T01:26:39.216Z,68.19
2014-09-26T01:27:44.187Z,67.95
2014-09-26T01:28:48.877Z,67.65
2014-09-26T01:29:53.550Z,67.37
2014-09-26T01:30:58.537Z,67.41
2014-09-26T01:32:03.226Z,67.02
2014-09-26T01:33:07.900Z,67.1
2014-09-26T01:34:12.590Z,66.73
2014-09-26T01:35:17.264Z,66.82
2014-09-26T01:36:21.954Z,66.87
2014-09-26T01:37:27.221Z,66.74
2014-09-26T01:38:31.910Z,66.53
2014-09-26T01:39:36.600Z,66.17
2014-09-26T01:40:41.274Z,66.6
2014-09-26T01:41:45.964Z,67.42
2014-09-26T01:42:50.637Z,66.79
2014-09-26T01:43:55.624Z,67.11
2014-09-26T01:45:00.298Z,67.2
2014-09-26T01:46:04.988Z,67.34
2014-09-26T01:47:09.958Z,66.89
2014-09-26T01:48:14.647Z,67.03
2014-09-26T01:49:19.619Z,66.59
2014-09-26T01:50:24.309Z,66.92
2014-09-26T01:51:29.279Z,67.87
2014-09-26T01:52:33.969Z,68.45
2014-09-26T01:53:38.643Z,68.71
2014-09-26T01:54:43.332Z,67.95
2014-09-26T01:55:48.006Z,67.72
2014-09-26T01:56:52.993Z,68.01
2014-09-26T01:57:57.666Z,67.92
2014-09-26T01:59:02.356Z,68.62
2014-09-26T02:00:07.030Z,68.31
2014-09-26T02:01:11.704Z,67.61
2014-09-26T02:02:16.690Z,67.65
2014-09-26T02:03:21.364Z,67.48
2014-09-26T02:04:26.053Z,67.6
2014-09-26T02:05:31.025Z,67.99
2014-09-26T02:06:36.012Z,67.75
2014-09-26T02:07:40.685Z,67.44
2014-09-26T02:08:45.672Z,68.03
2014-09-26T02:09:50.643Z,68.02
2014-09-26T02:10:55.332Z,68.45
2014-09-26T02:12:00.303Z,69.56
2014-09-26T02:13:04.992Z,68.7
2014-09-26T02:14:09.666Z,68.97
2014-09-26T02:15:14.356Z,68.65
2014-09-26T02:16:19.046Z,68.21
2014-09-26T02:17:24.016Z,68.2
2014-09-26T02:18:28.690Z,68.98
2014-09-26T02:19:33.677Z,69.26
2014-09-26T02:20:38.351Z,69.76
2014-09-26T02:21:43.337Z,69.55
2014-09-26T02:22:48.308Z,69.08
2014-09-26T02:23:53.294Z,68.36
2014-09-26T02:24:58.265Z,67.88
2014-09-26T02:26:03.252Z,67.62
2014-09-26T02:27:07.927Z,68.13
2014-09-26T02:28:12.616Z,68.09
2014-09-26T02:29:17.289Z,68.18
2014-09-26T02:30:21.978Z,68.14
2014-09-26T02:31:26.653Z,68.02
2014-09-26T02:32:31.327Z,67.95
2014-09-26T02:33:36.017Z,68.69
2014-09-26T02:34:40.691Z,69.05
2014-09-26T02:35:45.677Z,69.17
2014-09-26T02:36:50.350Z,68.98
2014-09-26T02:37:55.024Z,68.33
2014-09-26T02:39:00.011Z,68.38
2014-09-26T02:40:04.701Z,68.37
2014-09-26T02:41:09.671Z,68.38
2014-09-26T02:42:14.361Z,69.04
2014-09-26T02:43:19.332Z,68.87
2014-09-26T02:44:24.006Z,68.42
2014-09-26T02:45:28.695Z,69.38
2014-09-26T02:46:33.369Z,68.71
2014-09-26T02:47:38.043Z,68.92
2014-09-26T02:48:42.733Z,69.15
2014-09-26T02:49:47.406Z,69
2014-09-26T02:50:51.408Z,69.59
2014-09-26T02:51:56.083Z,69.25
2014-09-26T02:53:00.085Z,68.76
2014-09-26T02:54:04.759Z,68.54
2014-09-26T02:55:09.433Z,68.04
2014-09-26T02:56:14.122Z,67.54
2014-09-26T02:57:19.093Z,67.97
2014-09-26T02:58:24.064Z,68.04
2014-09-26T02:59:28.753Z,67.66
2014-09-26T03:00:33.427Z,67.31
2014-09-26T03:01:38.414Z,67.32
2014-09-26T03:02:43.088Z,67.39
2014-09-26T03:03:47.777Z,67.34
2014-09-26T03:04:52.748Z,67.09
2014-09-26T03:05:57.046Z,66.97
2014-09-26T03:07:01.721Z,67.1
2014-09-26T03:08:06.411Z,67.52
2014-09-26T03:09:11.084Z,68.03
2014-09-26T03:10:15.759Z,67.67
2014-09-26T03:11:20.448Z,67.64
2014-09-26T03:12:25.419Z,67.82
2014-09-26T03:13:30.093Z,67.78
2014-09-26T03:14:34.783Z,67.48
2014-09-26T03:15:39.753Z,67.42
2014-09-26T03:16:44.442Z,67.06
2014-09-26T03:17:49.116Z,67.14
2014-09-26T03:18:53.104Z,67.51
2014-09-26T03:19:57.793Z,67.88
2014-09-26T03:21:02.467Z,67.45
2014-09-26T03:22:07.157Z,67.93
2014-09-26T03:23:11.846Z,68.5
2014-09-26T03:24:16.520Z,69.25
2014-09-26T03:25:21.194Z,68.74
2014-09-26T03:26:25.883Z,68.58
2014-09-26T03:27:30.557Z,68.94
2014-09-26T03:28:35.247Z,70.13
2014-09-26T03:29:39.922Z,70.06
2014-09-26T03:30:44.595Z,69.68
2014-09-26T03:31:49.284Z,68.96
2014-09-26T03:32:53.958Z,67.93
2014-09-26T03:33:58.632Z,67.82
2014-09-26T03:35:03.916Z,67.48
2014-09-26T03:36:08.886Z,68.93
2014-09-26T03:37:13.873Z,68.8
2014-09-26T03:38:18.547Z,68.85
2014-09-26T03:39:23.236Z,68.13
2014-09-26T03:40:28.207Z,68.06
2014-09-26T03:41:32.897Z,67.96
2014-09-26T03:42:37.587Z,68.61
2014-09-26T03:43:41.574Z,69.04
2014-09-26T03:44:46.560Z,69.49
2014-09-26T03:45:51.530Z,69.64
2014-09-26T03:46:56.219Z,69.48
2014-09-26T03:48:01.190Z,68.84
2014-09-26T03:49:05.879Z,68.59
2014-09-26T03:50:10.554Z,68.72
2014-09-26T03:51:15.244Z,69.59
2014-09-26T03:52:19.917Z,69.62
2014-09-26T03:53:24.607Z,69.92
2014-09-26T03:54:29.281Z,69.93
2014-09-26T03:55:33.971Z,69.15
2014-09-26T03:56:37.957Z,68.61
2014-09-26T03:57:42.646Z,68.07
2014-09-26T03:58:47.336Z,69.17
2014-09-26T03:59:52.010Z,69.88
2014-09-26T04:00:56.996Z,70.02
2014-09-26T04:02:01.686Z,70.09
2014-09-26T04:03:06.657Z,70.08
2014-09-26T04:04:11.347Z,70.19
2014-09-26T04:05:16.020Z,69.5
2014-09-26T04:06:20.709Z,68.51
2014-09-26T04:07:25.384Z,68.38
2014-09-26T04:08:30.074Z,67.85
2014-09-26T04:09:35.044Z,67.93
2014-09-26T04:10:39.734Z,68.04
2014-09-26T04:11:44.408Z,68.07
2014-09-26T04:12:49.394Z,67.9
2014-09-26T04:13:54.068Z,67.72
2014-09-26T04:14:58.758Z,67.68
2014-09-26T04:16:03.432Z,67.47
2014-09-26T04:17:08.418Z,67.5
2014-09-26T04:18:13.107Z,67.52
2014-09-26T04:19:17.782Z,67.64
2014-09-26T04:20:22.472Z,68.54
2014-09-26T04:21:27.146Z,68.21
2014-09-26T04:22:32.132Z,67.74
2014-09-26T04:23:36.820Z,67.72
2014-09-26T04:24:41.808Z,67.24
2014-09-26T04:25:46.497Z,67.85
2014-09-26T04:26:50.484Z,67.95
2014-09-26T04:27:55.470Z,68.06
2014-09-26T04:29:00.144Z,67.99
2014-09-26T04:30:05.131Z,67.86
2014-09-26T04:31:09.820Z,68.11
2014-09-26T04:32:14.792Z,68.47
2014-09-26T04:33:19.481Z,68
2014-09-26T04:34:24.171Z,67.78
2014-09-26T04:35:28.173Z,67.78
2014-09-26T04:36:32.846Z,68.33
2014-09-26T04:37:37.536Z,68.13
2014-09-26T04:38:42.506Z,67.64
2014-09-26T04:39:47.196Z,67.71
2014-09-26T04:40:52.479Z,67.37
2014-09-26T04:41:57.169Z,67.08
2014-09-26T04:43:01.843Z,66.69
2014-09-26T04:44:06.532Z,66.54
2014-09-26T04:45:11.206Z,66.84
2014-09-26T04:46:15.896Z,66.54
2014-09-26T04:47:20.867Z,66.45
2014-09-26T04:48:25.557Z,67.03
2014-09-26T04:49:30.230Z,66.9
2014-09-26T04:50:34.919Z,67.09
2014-09-26T04:51:39.891Z,66.88
2014-09-26T04:52:44.581Z,66.83
2014-09-26T04:53:49.254Z,66.58
2014-09-26T04:54:53.944Z,68.2
2014-09-26T04:55:58.618Z,69.34
2014-09-26T04:57:03.307Z,69.53
2014-09-26T05:00:15.438Z,70.53
2014-09-26T05:01:20.128Z,70.88
2014-09-26T05:02:25.099Z,70.63
2014-09-26T05:03:30.086Z,70.99
2014-09-26T05:04:35.072Z,71.11
2014-09-26T05:05:40.059Z,71.04
2014-09-26T05:06:44.733Z,71.48
2014-09-26T05:07:50.015Z,71.5
2014-09-26T05:08:54.721Z,71.34
2014-09-26T05:09:59.395Z,71.6
2014-09-26T05:11:04.083Z,71.8
2014-09-26T05:12:08.758Z,71.7
2014-09-26T05:13:13.729Z,71.85
2014-09-26T05:14:18.418Z,72.04
2014-09-26T05:15:23.092Z,71.85
2014-09-26T05:16:28.079Z,71.97
2014-09-26T05:17:32.769Z,71.94
2014-09-26T05:18:37.442Z,71.78
2014-09-26T05:19:42.428Z,71.49
2014-09-26T05:20:47.103Z,71.85
2014-09-26T05:21:51.793Z,72.16
2014-09-26T05:22:56.466Z,72.06
2014-09-26T05:24:01.453Z,71.88
2014-09-26T05:25:06.423Z,72.39
2014-09-26T05:26:11.113Z,72.32
2014-09-26T05:27:15.787Z,72.34
2014-09-26T05:28:20.477Z,71.94
2014-09-26T05:29:25.183Z,71.94
2014-09-26T05:30:29.856Z,71.77
2014-09-26T05:31:34.546Z,71.79
2014-09-26T05:32:39.219Z,71.82
2014-09-26T05:33:43.909Z,71.85
2014-09-26T05:34:48.583Z,71.8
2014-09-26T05:35:53.288Z,71.53
2014-09-26T05:36:58.259Z,72.04
2014-09-26T05:38:02.932Z,71.88
2014-09-26T05:39:07.606Z,71.61
2014-09-26T05:40:12.297Z,71.74
2014-09-26T05:41:16.970Z,71.61
2014-09-26T05:42:21.941Z,71.23
2014-09-26T05:43:26.631Z,71.47
2014-09-26T05:44:31.306Z,71.79
2014-09-26T05:45:35.979Z,71.75
2014-09-26T05:46:40.668Z,71.93
2014-09-26T05:47:45.342Z,71.94
2014-09-26T05:48:50.016Z,71.57
2014-09-26T05:49:55.003Z,71.5
2014-09-26T05:50:59.676Z,71.26
2014-09-26T05:52:04.351Z,71.49
2014-09-26T05:53:09.040Z,71.49
2014-09-26T05:54:13.714Z,71.25
2014-09-26T05:55:18.701Z,71.27
2014-09-26T05:56:23.671Z,71.36
2014-09-26T05:57:28.642Z,71.39
2014-09-26T05:58:33.333Z,71.5
2014-09-26T05:59:38.302Z,71.51
2014-09-26T06:00:42.976Z,71.43
2014-09-26T06:01:47.666Z,71.19
2014-09-26T06:02:52.341Z,71.54
2014-09-26T06:03:57.014Z,71.11
2014-09-26T06:05:02.298Z,71.18
2014-09-26T06:06:06.972Z,71.18
2014-09-26T06:07:11.645Z,70.97
2014-09-26T06:08:16.631Z,70.62
2014-09-26T06:09:21.602Z,70.71
2014-09-26T06:10:26.276Z,70.77
2014-09-26T06:11:31.263Z,70.79
2014-09-26T06:12:35.937Z,70.89
2014-09-26T06:13:40.627Z,70.85
2014-09-26T06:14:45.318Z,70.71
2014-09-26T06:15:50.035Z,70.83
2014-09-26T06:16:54.766Z,70.71
2014-09-26T06:17:59.780Z,70.71
2014-09-26T06:19:04.809Z,70.82
2014-09-26T06:20:09.503Z,70.64
2014-09-26T06:21:14.488Z,70.27
2014-09-26T06:22:19.194Z,70.51
2014-09-26T06:23:24.196Z,70.57
2014-09-26T06:24:29.180Z,70.79
2014-09-26T06:25:33.875Z,71.05
2014-09-26T06:26:38.555Z,70.25
2014-09-26T06:27:43.828Z,70.11
2014-09-26T06:28:48.522Z,70.57
2014-09-26T06:29:53.497Z,70.09
2014-09-26T06:30:58.485Z,70.1
2014-09-26T06:32:03.161Z,73.36
2014-09-26T06:33:08.135Z,67.15
2014-09-26T06:34:12.811Z,65.32
2014-09-26T06:35:17.797Z,63.31
2014-09-26T06:36:22.473Z,62.48
2014-09-26T06:37:27.148Z,62.88
2014-09-26T06:38:32.134Z,60.05
2014-09-26T06:39:37.106Z,57.61
2014-09-26T06:40:42.093Z,57.88
2014-09-26T06:41:46.767Z,59.47
2014-09-26T06:42:51.457Z,59.53
2014-09-26T06:43:56.130Z,59.01
2014-09-26T06:45:01.414Z,58.92
2014-09-26T06:46:06.087Z,59.43
2014-09-26T06:47:10.761Z,58.02
2014-09-26T06:48:15.451Z,58.68
2014-09-26T06:49:20.125Z,59.64
2014-09-26T06:50:24.815Z,59.09
2014-09-26T06:51:29.785Z,59.09
2014-09-26T06:52:34.475Z,59.59
2014-09-26T06:53:39.446Z,61.05
2014-09-26T06:54:44.432Z,63.42
2014-09-26T06:55:49.106Z,64.11
2014-09-26T06:56:53.811Z,64.47
2014-09-26T06:57:58.782Z,65.57
2014-09-26T06:59:03.082Z,65.65
2014-09-26T07:00:07.756Z,65.97
2014-09-26T07:01:12.445Z,65.77
2014-09-26T07:02:17.118Z,66.24
2014-09-26T07:03:21.807Z,66.78
2014-09-26T07:04:26.498Z,67.02
2014-09-26T07:05:31.172Z,67.02
2014-09-26T07:06:36.455Z,67.32
2014-09-26T07:07:41.426Z,67.07
2014-09-26T07:08:46.412Z,66.5
2014-09-26T07:09:51.086Z,66.45
2014-09-26T07:10:55.760Z,66.38
2014-09-26T07:12:00.450Z,66.51
2014-09-26T07:13:05.421Z,66.63
2014-09-26T07:14:10.408Z,66.28
2014-09-26T07:15:15.081Z,66.75
2014-09-26T07:16:19.771Z,66.66
2014-09-26T07:17:24.741Z,66.74
2014-09-26T07:18:29.431Z,66.39
2014-09-26T07:19:34.402Z,66.38
2014-09-26T07:20:39.091Z,66.1
2014-09-26T07:21:43.078Z,65.81
2014-09-26T07:22:47.767Z,66.36
2014-09-26T07:23:52.738Z,64.71
2014-09-26T07:24:57.724Z,64.99
2014-09-26T07:26:02.431Z,65.87
2014-09-26T07:27:07.401Z,66.6
2014-09-26T07:28:12.075Z,66.34
2014-09-26T07:29:16.764Z,66.61
2014-09-26T07:30:21.454Z,66.55
2014-09-26T07:31:26.128Z,66.7
2014-09-26T07:32:30.802Z,66.11
2014-09-26T07:33:35.788Z,65.96
2014-09-26T07:34:40.759Z,65.79
2014-09-26T07:35:45.449Z,65.73
2014-09-26T07:36:50.122Z,66.14
2014-09-26T07:37:54.796Z,66
2014-09-26T07:38:59.501Z,66.27
2014-09-26T07:40:04.472Z,66.43
2014-09-26T07:41:09.162Z,65.91
2014-09-26T07:42:13.837Z,65.65
2014-09-26T07:43:18.806Z,65.44
2014-09-26T07:44:23.496Z,65.51
2014-09-26T07:45:28.780Z,65.06
2014-09-26T07:46:33.454Z,64.5
2014-09-26T07:47:38.143Z,63.99
2014-09-26T07:48:43.114Z,64.69
2014-09-26T07:49:47.803Z,64.41
2014-09-26T07:50:52.493Z,65.86
2014-09-26T07:51:57.167Z,64.81
2014-09-26T07:53:02.153Z,64.89
2014-09-26T07:54:07.124Z,64.51
2014-09-26T07:55:11.814Z,64.55
2014-09-26T07:56:16.489Z,63.48
2014-09-26T07:57:21.178Z,63.13
2014-09-26T07:58:25.851Z,63.3
2014-09-26T07:59:30.540Z,63.47
2014-09-26T08:00:35.215Z,63.59
2014-09-26T08:01:39.905Z,63.34
2014-09-26T08:02:44.578Z,63.73
2014-09-26T08:03:49.268Z,63.44
2014-09-26T08:04:53.942Z,63.02
2014-09-26T08:05:58.647Z,62.87
2014-09-26T08:07:03.321Z,63.04
2014-09-26T08:08:08.011Z,62.78
2014-09-26T08:09:12.685Z,63.04
2014-09-26T08:10:17.671Z,62.18
2014-09-26T08:11:22.345Z,61.54
2014-09-26T08:12:27.332Z,61.33
2014-09-26T08:13:32.005Z,60.79
2014-09-26T08:14:36.694Z,59.22
2014-09-26T08:15:41.666Z,56.77
2014-09-26T08:16:46.355Z,57.14
2014-09-26T08:17:51.030Z,57.68
2014-09-26T08:18:56.016Z,58.46
2014-09-26T08:20:00.705Z,58.07
2014-09-26T08:21:05.379Z,57.29
2014-09-26T08:22:10.366Z,56.91
2014-09-26T08:23:15.041Z,56.85
2014-09-26T08:24:19.729Z,57.59
2014-09-26T08:25:24.715Z,58.11
2014-09-26T08:26:29.406Z,56.73
2014-09-26T08:27:34.376Z,54.84
2014-09-26T08:28:39.081Z,54.53
2014-09-26T08:29:43.771Z,55.4
2014-09-26T08:30:48.742Z,56.21
2014-09-26T08:31:53.432Z,56.37
2014-09-26T08:32:58.215Z,54.8
2014-09-26T08:34:03.186Z,55.21
2014-09-26T08:35:07.875Z,56.48
2014-09-26T08:36:12.565Z,56
2014-09-26T08:37:17.535Z,55.41
2014-09-26T08:38:22.225Z,55.19
2014-09-26T08:39:26.914Z,55.56
2014-09-26T08:40:31.604Z,54.61
2014-09-26T08:41:35.606Z,54.96
2014-09-26T08:42:40.295Z,54.34
2014-09-26T08:43:44.282Z,53.72
2014-09-26T08:44:49.269Z,53.06
2014-09-26T08:45:53.958Z,52.98
2014-09-26T08:46:58.929Z,53.62
2014-09-26T08:48:03.915Z,53.89
2014-09-26T08:49:08.605Z,53.27
2014-09-26T08:50:13.279Z,53.13
2014-09-26T08:51:17.969Z,52.87
2014-09-26T08:52:22.955Z,53.03
2014-09-26T08:53:27.941Z,52.98
2014-09-26T08:54:32.615Z,52.99
2014-09-26T08:55:37.305Z,52.66
2014-09-26T08:56:41.995Z,53.59
2014-09-26T08:57:46.965Z,52.55
2014-09-26T08:58:51.655Z,52.02
2014-09-26T08:59:56.345Z,51.67
2014-09-26T09:01:01.627Z,50.44
2014-09-26T09:02:06.302Z,51.23
2014-09-26T09:03:11.288Z,51.07
2014-09-26T09:04:15.978Z,51.25
2014-09-26T09:05:20.652Z,51.74
2014-09-26T09:06:25.341Z,52.73
2014-09-26T09:07:30.015Z,51.45
2014-09-26T09:08:35.002Z,51.37
2014-09-26T09:09:39.692Z,51.38
2014-09-26T09:10:44.365Z,51.88
2014-09-26T09:11:49.055Z,51.61
2014-09-26T09:12:54.042Z,51.26
2014-09-26T09:13:59.012Z,51.13
2014-09-26T09:15:03.702Z,50.95
2014-09-26T09:16:08.688Z,50.45
2014-09-26T09:17:13.378Z,51.56
2014-09-26T09:18:18.067Z,51.02
2014-09-26T09:19:22.741Z,50.92
2014-09-26T09:20:27.728Z,51.64
2014-09-26T09:21:32.418Z,51.81
2014-09-26T09:22:37.091Z,51.25
2014-09-26T09:23:41.782Z,50.65
2014-09-26T09:24:46.455Z,52.11
2014-09-26T09:25:51.144Z,52.1
2014-09-26T09:26:55.818Z,49.82
2014-09-26T09:28:00.508Z,49.12
2014-09-26T09:29:05.182Z,49.02
2014-09-26T09:30:09.871Z,48.97
2014-09-26T09:31:14.546Z,50.33
2014-09-26T09:32:19.235Z,49.47
2014-09-26T09:33:23.925Z,50.81
2014-09-26T09:34:28.598Z,49.74
2014-09-26T09:35:33.288Z,50.02
2014-09-26T09:36:38.259Z,49.1
2014-09-26T09:37:42.261Z,50.02
2014-09-26T09:38:47.248Z,49.94
2014-09-26T09:39:52.218Z,50.93
2014-09-26T09:40:57.205Z,51.11
2014-09-26T09:42:01.878Z,52.16
2014-09-26T09:43:06.584Z,50.74
2014-09-26T09:44:11.257Z,52.34
2014-09-26T09:45:15.948Z,50.58
2014-09-26T09:46:20.918Z,48.15
2014-09-26T09:47:25.607Z,48.77
2014-09-26T09:48:30.296Z,49.55
2014-09-26T09:49:34.971Z,49.93
2014-09-26T09:50:39.661Z,49.11
2014-09-26T09:51:44.335Z,48.45
2014-09-26T09:52:49.024Z,48.5
2014-09-26T09:53:53.698Z,49.62
2014-09-26T09:54:58.388Z,50
2014-09-26T09:56:03.374Z,48.07
2014-09-26T09:57:08.063Z,47.47
2014-09-26T09:58:13.035Z,46.96
2014-09-26T09:59:17.724Z,48.89
2014-09-26T10:00:22.414Z,49.59
2014-09-26T10:01:27.400Z,48.78
2014-09-26T10:02:32.074Z,49.02
2014-09-26T10:03:37.061Z,49.45
2014-09-26T10:04:41.750Z,48.43
2014-09-26T10:05:46.424Z,48.1
2014-09-26T10:06:51.115Z,47.88
2014-09-26T10:07:56.084Z,48.76
2014-09-26T10:09:01.071Z,49.17
2014-09-26T10:10:05.760Z,48.8
2014-09-26T10:11:10.434Z,49.05
2014-09-26T10:12:15.125Z,49.38
2014-09-26T10:13:20.110Z,49.37
2014-09-26T10:14:24.799Z,48.86
2014-09-26T10:15:29.771Z,48.4
2014-09-26T10:16:34.757Z,48.19
2014-09-26T10:17:39.447Z,48.73
2014-09-26T10:18:44.137Z,49.06
2014-09-26T10:19:48.810Z,49.11
2014-09-26T10:20:53.500Z,49.52
2014-09-26T10:21:58.189Z,48.9
2014-09-26T10:23:02.863Z,48.29
2014-09-26T10:24:07.553Z,48.38
2014-09-26T10:25:12.524Z,48.85
2014-09-26T10:26:17.213Z,50.03
2014-09-26T10:27:21.903Z,49.16
2014-09-26T10:28:26.890Z,49.45
2014-09-26T10:29:31.563Z,49.83
2014-09-26T10:30:36.549Z,49.31
2014-09-26T10:31:41.224Z,49.59
2014-09-26T10:32:46.210Z,48.83
2014-09-26T10:33:50.900Z,49.58
2014-09-26T10:34:55.574Z,49.34
2014-09-26T10:36:00.263Z,49.21
2014-09-26T10:37:04.937Z,48.89
2014-09-26T10:38:09.627Z,48.62
2014-09-26T10:39:14.316Z,49.32
2014-09-26T10:40:18.990Z,49.47
2014-09-26T10:41:23.681Z,49.82
2014-09-26T10:42:28.370Z,48.86
2014-09-26T10:43:33.043Z,48.94
2014-09-26T10:44:37.733Z,51.64
2014-09-26T10:45:42.407Z,48.59
2014-09-26T10:46:47.096Z,49.17
2014-09-26T10:47:51.785Z,49.69
2014-09-26T10:48:56.460Z,49.11
2014-09-26T10:50:01.150Z,49.64
2014-09-26T10:51:06.136Z,48.56
2014-09-26T10:52:10.810Z,48.92
2014-09-26T10:53:15.796Z,49.28
2014-09-26T10:54:20.486Z,48.87
2014-09-26T10:55:25.458Z,49.25
2014-09-26T10:56:30.162Z,48.53
2014-09-26T10:57:34.852Z,48.14
2014-09-26T10:58:39.822Z,48.18
2014-09-26T10:59:44.512Z,49
2014-09-26T11:00:49.186Z,49.4
2014-09-26T11:01:53.876Z,49.24
2014-09-26T11:02:58.549Z,48.49
2014-09-26T11:04:03.536Z,47.9
2014-09-26T11:05:08.226Z,47.83
2014-09-26T11:06:12.899Z,47.44
2014-09-26T11:07:17.589Z,46.58
2014-09-26T11:08:22.278Z,46.15
2014-09-26T11:09:26.265Z,46.23
2014-09-26T11:10:30.954Z,47.5
2014-09-26T11:11:35.644Z,47.47
2014-09-26T11:12:40.318Z,48.63
2014-09-26T11:13:45.008Z,48.45
2014-09-26T11:14:49.698Z,49.15
2014-09-26T11:15:54.668Z,49.06
2014-09-26T11:16:59.655Z,47.59
2014-09-26T11:18:04.640Z,48.23
2014-09-26T11:19:09.315Z,49.05
2014-09-26T11:20:14.005Z,48.96
2014-09-26T11:21:18.694Z,48.27
2014-09-26T11:22:23.665Z,49.35
2014-09-26T11:23:28.354Z,48.76
2014-09-26T11:24:33.044Z,49.01
2014-09-26T11:25:37.718Z,48.08
2014-09-26T11:26:41.720Z,48.17
2014-09-26T11:27:46.691Z,47.37
2014-09-26T11:28:51.380Z,48.19
2014-09-26T11:29:56.070Z,48.42
2014-09-26T11:31:01.057Z,47.25
2014-09-26T11:32:05.730Z,45.6
2014-09-26T11:33:10.420Z,46.27
2014-09-26T11:34:15.110Z,46.88
2014-09-26T11:35:19.799Z,47
2014-09-26T11:36:24.786Z,46.79
2014-09-26T11:37:29.475Z,46.89
2014-09-26T11:38:34.149Z,47.91
2014-09-26T11:39:38.839Z,47.91
2014-09-26T11:40:43.528Z,48.04
2014-09-26T11:41:48.202Z,47.8
2014-09-26T11:42:52.923Z,47.64
2014-09-26T11:43:57.677Z,48.53
2014-09-26T11:45:02.368Z,48.28
2014-09-26T11:46:07.041Z,48.02
2014-09-26T11:47:11.731Z,47.93
2014-09-26T11:48:16.421Z,47.59
2014-09-26T11:49:21.094Z,47.58
2014-09-26T11:50:25.784Z,47.51
2014-09-26T11:51:30.474Z,47.37
2014-09-26T11:52:35.195Z,46.28
2014-09-26T11:53:39.884Z,47.28
2014-09-26T11:54:43.902Z,46.69
2014-09-26T11:55:48.873Z,45.92
2014-09-26T11:56:53.577Z,46.43
2014-09-26T11:57:58.268Z,46.97
2014-09-26T11:59:02.956Z,46.68
2014-09-26T12:00:07.928Z,46.59
2014-09-26T12:01:12.632Z,48.77
2014-09-26T12:02:17.323Z,46.62
2014-09-26T12:03:21.996Z,46.33
2014-09-26T12:04:26.686Z,46.72
2014-09-26T12:05:31.376Z,47.32
2014-09-26T12:06:36.065Z,46.06
2014-09-26T12:07:41.036Z,46.06
2014-09-26T12:08:45.725Z,46.7
2014-09-26T12:09:50.415Z,45.74
2014-09-26T12:10:55.104Z,45.84
2014-09-26T12:11:59.779Z,47.43
2014-09-26T12:13:04.468Z,47.07
2014-09-26T12:14:09.158Z,47.8
2014-09-26T12:15:13.848Z,45.97
2014-09-26T12:16:18.521Z,45.15
2014-09-26T12:17:23.211Z,45.57
2014-09-26T12:18:27.901Z,47.61
2014-09-26T12:19:32.590Z,47.44
2014-09-26T12:20:37.561Z,46.46
2014-09-26T12:21:42.250Z,46.57
2014-09-26T12:22:46.940Z,47.07
2014-09-26T12:23:51.629Z,47.75
2014-09-26T12:24:56.303Z,47.26
2014-09-26T12:26:01.290Z,47.56
2014-09-26T12:27:05.980Z,49.29
2014-09-26T12:28:10.951Z,47.39
2014-09-26T12:29:15.641Z,46.42
2014-09-26T12:30:20.330Z,47.44
2014-09-26T12:31:25.025Z,47.18
2014-09-26T12:32:30.011Z,45.63
2014-09-26T12:33:34.701Z,46.33
2014-09-26T12:34:39.391Z,47.26
2014-09-26T12:35:44.377Z,46.36
2014-09-26T12:36:49.051Z,46.22
2014-09-26T12:37:53.740Z,45.79
2014-09-26T12:38:58.742Z,45.91
2014-09-26T12:40:03.416Z,46.2
2014-09-26T12:41:08.106Z,46.84
2014-09-26T12:42:13.092Z,46.97
2014-09-26T12:43:17.782Z,45.58
2014-09-26T12:44:22.472Z,45.46
2014-09-26T12:45:27.162Z,47.26
2014-09-26T12:46:31.851Z,46.23
2014-09-26T12:47:36.540Z,46.26
2014-09-26T12:48:41.230Z,46.6
2014-09-26T12:49:45.920Z,46.57
2014-09-26T12:50:50.609Z,46.67
2014-09-26T12:51:55.283Z,46.32
2014-09-26T12:52:59.974Z,44.26
2014-09-26T12:54:04.662Z,45.2
2014-09-26T12:55:09.352Z,44.24
2014-09-26T12:56:14.042Z,44.44
2014-09-26T12:57:18.731Z,45.89
2014-09-26T12:58:23.718Z,45.94
2014-09-26T12:59:28.391Z,45.14
2014-09-26T13:00:33.097Z,44.7
2014-09-26T13:01:38.082Z,44.64
2014-09-26T13:02:43.070Z,45.82
2014-09-26T13:03:47.744Z,45.08
2014-09-26T13:04:52.433Z,45.06
2014-09-26T13:05:57.123Z,43.97
2014-09-26T13:07:01.812Z,44.3
2014-09-26T13:08:06.502Z,43.71
2014-09-26T13:09:11.191Z,43.47
2014-09-26T13:10:15.881Z,44.8
2014-09-26T13:11:20.571Z,44.39
2014-09-26T13:12:25.260Z,44.38
2014-09-26T13:13:30.231Z,45.1
2014-09-26T13:14:34.920Z,44.73
2014-09-26T13:15:39.907Z,44.6
2014-09-26T13:16:44.596Z,43.57
2014-09-26T13:17:49.286Z,43.98
2014-09-26T13:18:53.976Z,45.61
2014-09-26T13:19:58.962Z,45.44
2014-09-26T13:21:03.933Z,43.49
2014-09-26T13:22:08.622Z,43.68
2014-09-26T13:23:13.312Z,44.4
2014-09-26T13:24:18.001Z,45.47
2014-09-26T13:25:22.691Z,45.4
2014-09-26T13:26:27.663Z,45.37
2014-09-26T13:27:32.351Z,45.25
2014-09-26T13:28:37.042Z,47.34
2014-09-26T13:29:41.730Z,46.49
2014-09-26T13:30:46.421Z,45.82
2014-09-26T13:31:51.110Z,44.92
2014-09-26T13:32:55.800Z,44.71
2014-09-26T13:34:00.489Z,44.93
2014-09-26T13:35:05.163Z,45.86
2014-09-26T13:36:09.852Z,46.12
2014-09-26T13:37:14.854Z,46.54
2014-09-26T13:38:19.544Z,46.65
2014-09-26T13:39:24.530Z,45.26
2014-09-26T13:40:29.220Z,44.12
2014-09-26T13:41:33.909Z,43.88
2014-09-26T13:42:38.599Z,44.8
2014-09-26T13:43:43.273Z,45.27
2014-09-26T13:44:48.260Z,45.56
2014-09-26T13:45:52.950Z,45.71
2014-09-26T13:46:57.936Z,45.21
2014-09-26T13:48:02.921Z,44.85
2014-09-26T13:49:08.205Z,44.71
2014-09-26T13:50:12.208Z,45.51
2014-09-26T13:51:16.897Z,45.32
2014-09-26T13:52:21.883Z,46.61
2014-09-26T13:53:26.557Z,46.26
2014-09-26T13:54:31.559Z,45.77
2014-09-26T13:55:36.249Z,45.42
2014-09-26T13:56:40.923Z,44.86
2014-09-26T13:57:45.612Z,45.33
2014-09-26T13:58:50.600Z,45.16